Time;durP1;ratioP1;P1;durP2;ratioP2;P2;SDS_P1;SDS_P2;PMS_P1;PMS_P2;Temp;Humidity;BMP_temperature;BMP_pressure;BME280_temperature;BME280_humidity;BME280_pressure;Samples;Min_cycle;Max_cycle;Signal;HPM_P1;HPM_P2
2022/05/25 00:00:46;;;;;;;4.00;1.43;;;;;;;19.02;53.42;97602.19;8396125;28;20228;-85
2022/05/25 00:04:49;;;;;;;3.07;1.20;;;;;;;18.99;53.64;97605.91;8416088;28;20560;-86
2022/05/25 00:08:54;;;;;;;3.17;1.40;;;;;;;18.95;54.27;97594.00;8416284;28;20228;-86
2022/05/25 00:12:57;;;;;;;6.53;1.40;;;;;;;18.91;54.06;97592.59;8416147;28;20239;-85
2022/05/25 00:17:00;;;;;;;1.70;1.20;;;;;;;18.88;52.49;97595.47;8416264;28;20233;-86
2022/05/25 00:21:04;;;;;;;5.03;1.23;;;;;;;18.85;53.81;97596.56;8415412;28;20228;-86
2022/05/25 00:25:10;;;;;;;3.00;1.37;;;;;;;18.90;53.34;97602.25;8415867;28;20225;-85
2022/05/25 00:29:14;;;;;;;4.60;1.40;;;;;;;18.83;53.86;97606.38;8415795;28;20228;-86
2022/05/25 00:33:20;;;;;;;4.17;1.50;;;;;;;18.82;54.24;97593.38;8396558;28;20244;-85
2022/05/25 00:37:23;;;;;;;3.13;1.40;;;;;;;18.67;55.37;97605.94;8382078;28;20237;-85
2022/05/25 00:41:29;;;;;;;2.63;1.43;;;;;;;18.69;54.32;97596.97;8382187;28;20304;-85
2022/05/25 00:45:35;;;;;;;2.93;1.30;;;;;;;18.70;54.70;97597.84;8381822;28;20228;-86
2022/05/25 00:49:38;;;;;;;2.63;1.40;;;;;;;18.62;55.13;97603.72;8381883;28;20279;-84
2022/05/25 00:53:43;;;;;;;5.30;1.70;;;;;;;18.56;55.13;97604.19;8381929;28;20236;-85
2022/05/25 00:57:49;;;;;;;4.37;1.30;;;;;;;18.58;55.56;97598.84;8381879;28;20515;-85
2022/05/25 01:01:52;;;;;;;3.70;1.30;;;;;;;18.63;55.57;97604.53;8381531;28;20240;-85
2022/05/25 01:06:00;;;;;;;4.13;1.50;;;;;;;18.56;54.73;97602.44;8381303;28;20232;-85
2022/05/25 01:10:11;;;;;;;2.27;1.40;;;;;;;18.53;54.38;97600.06;8381501;28;20228;-85
2022/05/25 01:14:31;;;;;;;2.93;1.53;;;;;;;18.49;54.36;97593.41;8381476;28;20235;-86
2022/05/25 01:18:36;;;;;;;3.90;1.57;;;;;;;18.54;53.79;97595.63;8407431;28;20238;-86
2022/05/25 01:23:02;;;;;;;4.13;1.60;;;;;;;18.51;53.46;97599.34;8413865;28;20234;-86
2022/05/25 01:27:22;;;;;;;1.50;1.10;;;;;;;18.45;53.97;97612.97;8372097;28;20231;-85
2022/05/25 01:31:31;;;;;;;3.63;1.40;;;;;;;18.49;54.37;97610.94;8413218;28;20258;-84
2022/05/25 01:35:43;;;;;;;4.97;1.60;;;;;;;18.46;54.27;97609.38;8413692;28;20238;-85
2022/05/25 01:39:53;;;;;;;2.77;1.20;;;;;;;18.50;53.87;97612.56;8413603;28;20232;-85
2022/05/25 01:43:57;;;;;;;9.03;1.43;;;;;;;18.41;54.39;97613.31;8413847;28;20228;-86
2022/05/25 01:48:06;;;;;;;6.83;1.50;;;;;;;18.39;54.79;97613.47;8413862;28;20298;-85
2022/05/25 01:52:11;;;;;;;6.73;1.30;;;;;;;18.29;54.94;97613.38;8413930;28;20222;-85
2022/05/25 01:56:16;;;;;;;5.40;1.20;;;;;;;18.27;54.45;97610.03;8413878;28;20234;-85
2022/05/25 02:00:34;;;;;;;3.53;1.30;;;;;;;18.31;54.03;97619.31;8413590;28;20227;-85
2022/05/25 02:04:40;;;;;;;3.83;1.30;;;;;;;18.22;54.02;97616.63;8380127;28;20242;-86
2022/05/25 02:08:50;;;;;;;2.30;0.93;;;;;;;18.24;53.89;97633.03;8380319;28;20235;-85
2022/05/25 02:13:28;;;;;;;4.83;1.47;;;;;;;18.21;54.15;97625.44;8380440;28;20227;-85
2022/05/25 02:17:38;;;;;;;2.80;1.17;;;;;;;18.21;54.11;97620.22;8373911;28;20231;-85
2022/05/25 02:21:47;;;;;;;2.97;1.07;;;;;;;18.19;54.12;97622.94;8380419;28;20242;-83
2022/05/25 02:25:53;;;;;;;4.43;1.30;;;;;;;18.08;54.20;97622.97;8380463;28;20224;-86
2022/05/25 02:30:00;;;;;;;3.57;1.13;;;;;;;18.10;53.37;97615.81;8380166;28;20232;-85
2022/05/25 02:34:05;;;;;;;3.60;1.40;;;;;;;18.01;54.55;97632.28;8380171;28;20274;-85
2022/05/25 02:38:09;;;;;;;4.03;1.13;;;;;;;18.01;54.12;97629.66;8379890;28;20231;-85
2022/05/25 02:42:14;;;;;;;2.83;1.30;;;;;;;18.09;53.53;97616.81;8380128;28;20231;-85
2022/05/25 02:46:18;;;;;;;3.37;1.30;;;;;;;18.00;53.83;97631.47;8385177;28;20238;-83
2022/05/25 02:50:21;;;;;;;5.83;1.27;;;;;;;17.95;54.46;97639.69;8385992;28;20549;-83
2022/05/25 02:54:25;;;;;;;5.27;1.27;;;;;;;17.93;54.21;97641.63;8385086;28;20287;-83
2022/05/25 02:58:28;;;;;;;2.43;1.40;;;;;;;17.91;54.80;97638.25;8385660;28;20235;-82
2022/05/25 03:02:31;;;;;;;4.87;1.67;;;;;;;17.91;55.06;97647.91;8385323;28;20238;-82
2022/05/25 03:06:34;;;;;;;3.03;1.40;;;;;;;17.89;54.68;97647.19;8385214;28;20235;-82
2022/05/25 03:10:38;;;;;;;4.20;1.30;;;;;;;17.92;54.59;97654.81;8385106;28;20227;-82
2022/05/25 03:14:42;;;;;;;4.27;1.20;;;;;;;17.86;54.81;97650.91;8385069;28;20235;-82
2022/05/25 03:18:45;;;;;;;3.90;1.33;;;;;;;17.81;54.45;97647.78;8385037;28;20231;-82
2022/05/25 03:22:48;;;;;;;2.63;1.20;;;;;;;17.83;54.48;97663.38;8385195;28;20227;-82
2022/05/25 03:26:52;;;;;;;4.13;1.63;;;;;;;17.77;54.67;97675.16;8384641;28;20518;-83
2022/05/25 03:30:55;;;;;;;6.53;1.40;;;;;;;17.85;53.68;97677.22;8384638;28;20223;-85
2022/05/25 03:34:59;;;;;;;3.27;1.30;;;;;;;17.87;53.37;97681.38;8384456;28;20227;-85
2022/05/25 03:39:03;;;;;;;4.07;1.37;;;;;;;17.79;52.71;97683.72;8384113;28;20232;-85
2022/05/25 03:43:08;;;;;;;3.77;1.30;;;;;;;17.77;52.54;97688.25;8384218;28;20234;-85
2022/05/25 03:47:11;;;;;;;2.50;1.40;;;;;;;17.81;52.17;97699.31;8384093;28;20258;-85
2022/05/25 03:51:14;;;;;;;3.33;1.50;;;;;;;17.77;52.29;97699.56;8384105;28;20254;-84
2022/05/25 03:55:17;;;;;;;4.77;1.40;;;;;;;17.74;53.02;97701.56;8382932;28;20235;-85
2022/05/25 03:59:21;;;;;;;2.73;1.43;;;;;;;17.74;52.86;97706.81;8383633;28;20231;-85
2022/05/25 04:03:24;;;;;;;6.73;1.60;;;;;;;17.69;53.84;97706.38;8383043;28;20227;-85
2022/05/25 04:07:27;;;;;;;3.50;1.17;;;;;;;17.67;53.77;97714.34;8383099;28;20231;-85
2022/05/25 04:11:30;;;;;;;3.17;1.60;;;;;;;17.70;53.97;97721.09;8383307;28;20306;-85
2022/05/25 04:15:35;;;;;;;3.17;1.63;;;;;;;17.69;53.48;97712.41;8383147;28;20237;-86
2022/05/25 04:19:38;;;;;;;2.03;1.23;;;;;;;17.66;54.09;97714.44;8383008;28;20238;-85
2022/05/25 04:23:42;;;;;;;3.10;1.63;;;;;;;17.63;53.73;97718.16;8382906;28;20243;-86
2022/05/25 04:27:46;;;;;;;4.07;1.50;;;;;;;17.62;53.84;97723.50;8383118;28;20234;-85
2022/05/25 04:31:50;;;;;;;3.00;1.40;;;;;;;17.65;53.56;97729.31;8383136;28;20238;-84
2022/05/25 04:35:53;;;;;;;4.63;1.40;;;;;;;17.64;54.22;97729.44;8382595;28;20228;-85
2022/05/25 04:39:56;;;;;;;5.43;1.40;;;;;;;17.54;55.02;97713.59;8382275;28;20227;-85
2022/05/25 04:43:59;;;;;;;2.80;1.23;;;;;;;17.58;55.96;97713.25;8382576;28;20227;-85
2022/05/25 04:48:04;;;;;;;2.87;1.10;;;;;;;17.63;56.28;97726.00;8382264;28;20234;-85
2022/05/25 04:52:07;;;;;;;4.47;1.40;;;;;;;17.70;55.76;97732.41;8382352;28;20583;-85
2022/05/25 05:00:31;;;;;;;3.20;1.60;;;;;;;17.64;56.64;97750.38;8371917;28;20235;-86
2022/05/25 05:04:37;;;;;;;4.97;1.50;;;;;;;17.57;57.04;97740.38;8379781;28;20235;-86
2022/05/25 05:08:41;;;;;;;4.43;2.37;;;;;;;17.59;57.09;97746.34;8384389;28;20248;-86
2022/05/25 05:12:44;;;;;;;8.57;2.53;;;;;;;17.59;56.62;97746.34;8383974;28;20406;-87
2022/05/25 05:16:48;;;;;;;6.17;2.93;;;;;;;17.63;56.20;97767.03;8382088;28;20238;-85
2022/05/25 05:20:53;;;;;;;5.43;2.77;;;;;;;17.58;55.97;97770.03;8381575;28;20231;-86
2022/05/25 05:24:57;;;;;;;5.73;2.20;;;;;;;17.61;56.31;97774.19;8381485;28;20223;-86
2022/05/25 05:29:00;;;;;;;3.63;1.43;;;;;;;17.53;56.24;97778.19;8381138;28;20551;-85
2022/05/25 05:33:03;;;;;;;5.20;1.70;;;;;;;17.62;55.68;97781.09;8381090;28;20250;-85
2022/05/25 05:37:13;;;;;;;3.87;1.50;;;;;;;17.56;56.21;97787.63;8380871;28;20231;-85
2022/05/25 05:41:20;;;;;;;5.37;1.30;;;;;;;17.59;55.75;97810.94;8380527;28;20235;-85
2022/05/25 05:45:24;;;;;;;3.33;1.73;;;;;;;17.66;54.85;97812.16;8388633;28;20241;-85
2022/05/25 05:49:28;;;;;;;3.47;1.37;;;;;;;17.69;55.19;97818.97;8380700;28;20235;-85
2022/05/25 05:53:33;;;;;;;3.97;1.67;;;;;;;17.66;54.52;97822.63;8380677;28;20237;-85
2022/05/25 05:57:36;;;;;;;3.50;1.60;;;;;;;17.75;53.97;97828.97;8380626;28;20243;-85
2022/05/25 06:01:39;;;;;;;4.00;1.60;;;;;;;17.73;53.90;97836.94;8380343;28;20242;-85
2022/05/25 06:05:43;;;;;;;7.17;1.70;;;;;;;17.67;54.56;97841.78;8380383;28;20227;-85
2022/05/25 06:09:48;;;;;;;6.27;1.87;;;;;;;17.71;54.09;97854.56;8380385;28;20513;-84
2022/05/25 06:13:52;;;;;;;3.17;1.53;;;;;;;17.78;54.20;97862.75;8381038;28;20224;-85
2022/05/25 06:22:18;;;;;;;3.87;1.50;;;;;;;17.86;53.43;97870.06;8406727;28;20231;-85
2022/05/25 06:26:25;;;;;;;7.40;1.70;;;;;;;18.02;52.51;97870.59;8419610;28;20227;-86
2022/05/25 06:30:28;;;;;;;4.07;1.70;;;;;;;18.14;52.84;97869.66;8419365;28;20479;-85
2022/05/25 06:34:31;;;;;;;4.50;1.63;;;;;;;18.19;51.95;97869.31;8419578;28;20230;-85
2022/05/25 06:38:34;;;;;;;4.77;1.50;;;;;;;18.29;51.44;97870.25;8419203;28;20229;-86
2022/05/25 06:42:41;;;;;;;5.20;1.70;;;;;;;18.32;51.04;97869.19;8419077;28;20237;-85
2022/05/25 06:46:45;;;;;;;4.67;1.90;;;;;;;18.50;51.18;97878.22;8419217;28;20223;-86
2022/05/25 06:50:48;;;;;;;4.47;2.00;;;;;;;18.55;51.38;97880.50;8419171;28;20333;-84
2022/05/25 06:54:53;;;;;;;7.00;2.10;;;;;;;18.70;51.41;97881.91;8419367;28;20230;-85
2022/05/25 06:58:59;;;;;;;4.50;1.70;;;;;;;18.74;49.99;97893.84;8419098;28;20333;-86
2022/05/25 07:03:03;;;;;;;5.73;1.93;;;;;;;18.81;50.25;97896.84;8412424;28;20228;-84
2022/05/25 07:07:06;;;;;;;5.57;2.07;;;;;;;19.03;49.94;97903.84;8418757;28;20402;-85
2022/05/25 07:11:09;;;;;;;4.07;1.70;;;;;;;19.09;49.55;97913.84;8418656;28;20238;-86
2022/05/25 07:15:13;;;;;;;4.93;1.60;;;;;;;19.03;47.45;97911.72;8418601;28;20235;-86
2022/05/25 07:19:17;;;;;;;3.27;1.17;;;;;;;19.12;48.28;97923.28;8418458;28;20338;-86
2022/05/25 07:23:20;;;;;;;3.90;1.40;;;;;;;19.10;47.10;97928.63;8418016;28;20421;-86
2022/05/25 07:27:23;;;;;;;4.23;1.60;;;;;;;19.47;46.95;97930.91;8415790;28;20224;-86
2022/05/25 07:31:30;;;;;;;2.13;1.40;;;;;;;20.22;45.22;97930.94;8400430;28;20243;-85
2022/05/25 07:35:34;;;;;;;1.77;1.20;;;;;;;20.68;42.36;97932.31;8400752;28;20224;-85
2022/05/25 07:39:40;;;;;;;2.30;1.00;;;;;;;21.01;39.68;97930.34;8395161;28;20291;-87
2022/05/25 07:43:44;;;;;;;1.73;1.00;;;;;;;21.21;39.20;97937.31;8400458;28;20229;-87
2022/05/25 07:47:51;;;;;;;4.80;1.13;;;;;;;21.65;40.45;97926.44;8400488;28;20233;-86
2022/05/25 07:51:54;;;;;;;3.90;1.37;;;;;;;21.88;40.11;97934.88;8400803;28;20236;-88
2022/05/25 07:55:57;;;;;;;3.93;1.30;;;;;;;21.96;38.07;97931.53;8404538;28;20230;-87
2022/05/25 08:00:00;;;;;;;2.83;1.23;;;;;;;22.55;37.74;97934.91;8419484;28;20233;-90
2022/05/25 08:08:26;;;;;;;2.43;1.20;;;;;;;22.86;37.49;97942.56;8404589;28;20238;-86
2022/05/25 08:12:35;;;;;;;2.63;1.17;;;;;;;22.87;35.70;97947.69;8398511;28;20219;-87
2022/05/25 08:16:38;;;;;;;2.97;1.00;;;;;;;22.94;34.91;97940.00;8389014;28;20212;-90
2022/05/25 08:20:43;;;;;;;3.57;1.20;;;;;;;23.09;34.84;97943.00;8387497;28;22218;-85
2022/05/25 08:24:46;;;;;;;4.07;0.93;;;;;;;23.19;34.95;97939.34;8399304;28;20260;-86
2022/05/25 08:28:50;;;;;;;2.30;0.80;;;;;;;22.93;34.75;97941.81;8396925;28;20231;-87
2022/05/25 08:32:53;;;;;;;3.37;0.90;;;;;;;22.68;35.15;97940.69;8389067;28;20536;-88
2022/05/25 08:36:57;;;;;;;3.07;0.90;;;;;;;23.79;33.76;97933.50;8386849;28;20286;-88
2022/05/25 08:41:00;;;;;;;2.40;0.70;;;;;;;24.02;31.85;97938.31;8385173;28;20232;-87
2022/05/25 08:45:03;;;;;;;3.63;0.70;;;;;;;24.37;32.09;97931.28;8385063;28;20223;-87
2022/05/25 08:49:11;;;;;;;4.80;0.90;;;;;;;23.80;31.12;97931.72;8383545;28;20294;-87
2022/05/25 08:53:17;;;;;;;3.23;1.30;;;;;;;24.35;31.33;97927.94;8384227;28;20234;-87
2022/05/25 08:57:24;;;;;;;3.23;1.20;;;;;;;24.42;30.44;97930.81;8383386;28;20235;-87
2022/05/25 09:01:30;;;;;;;3.90;1.40;;;;;;;23.79;30.91;97930.84;8414459;28;20230;-90
2022/05/25 09:05:38;;;;;;;7.03;1.10;;;;;;;23.64;32.41;97929.69;8383660;28;20319;-90
2022/05/25 09:09:44;;;;;;;3.20;0.93;;;;;;;23.82;30.99;97937.66;8384395;28;20515;-90
2022/05/25 09:13:52;;;;;;;0.87;0.63;;;;;;;24.55;32.19;97936.53;8383968;28;20225;-91
2022/05/25 09:18:07;;;;;;;2.13;1.00;;;;;;;24.43;31.39;97935.09;8383931;28;20530;-88
2022/05/25 09:22:13;;;;;;;2.97;1.00;;;;;;;24.48;30.69;97943.41;8382518;28;20319;-88
2022/05/25 09:26:17;;;;;;;4.60;1.07;;;;;;;23.77;31.14;97947.81;8381937;28;20235;-88
2022/05/25 09:30:20;;;;;;;2.37;0.80;;;;;;;24.61;30.07;97943.00;8382320;28;20239;-89
2022/05/25 09:34:33;;;;;;;2.60;0.80;;;;;;;24.78;29.29;97950.03;8381797;28;20488;-87
2022/05/25 09:38:43;;;;;;;2.00;0.67;;;;;;;24.35;29.91;97952.59;8382142;28;20230;-90
2022/05/25 09:42:50;;;;;;;2.23;0.83;;;;;;;23.40;32.09;97956.75;8385092;28;20227;-90
2022/05/25 09:46:58;;;;;;;4.37;0.97;;;;;;;22.93;33.80;97964.75;8382978;28;20219;-90
2022/05/25 09:51:07;;;;;;;3.00;0.87;;;;;;;24.34;32.19;97950.13;8381845;28;20241;-95
2022/05/25 09:55:13;;;;;;;4.50;1.20;;;;;;;25.06;31.34;97952.50;8381842;28;20233;-93
2022/05/25 09:59:23;;;;;;;7.97;1.40;;;;;;;25.05;31.27;97956.94;8385345;28;20237;-90
2022/05/25 10:03:35;;;;;;;1.53;0.90;;;;;;;24.52;31.28;97953.56;8381495;28;20232;-87
2022/05/25 10:07:42;;;;;;;5.47;1.13;;;;;;;24.47;31.34;97952.34;8381802;28;20246;-90
2022/05/25 10:11:48;;;;;;;2.90;0.90;;;;;;;25.04;31.41;97957.13;8381175;28;20238;-89
2022/05/25 10:15:52;;;;;;;6.47;0.80;;;;;;;25.65;29.79;97945.34;8381207;28;20235;-80
2022/05/25 10:19:57;;;;;;;4.10;0.80;;;;;;;25.74;28.28;97935.56;8408578;28;20411;-78
2022/05/25 10:24:02;;;;;;;3.63;0.70;;;;;;;25.27;28.41;97946.78;8413169;28;20230;-79
2022/05/25 10:28:18;;;;;;;3.43;0.93;;;;;;;25.24;26.06;97945.28;8415021;28;20415;-80
2022/05/25 10:36:57;;;;;;;3.23;0.80;;;;;;;26.49;26.53;97947.81;8409622;28;20422;-80
2022/05/25 10:41:37;;;;;;;2.90;0.80;;;;;;;25.87;27.79;97945.69;8412592;28;20233;-79
2022/05/25 10:45:32;;;;;;;7.70;0.90;;;;;;;24.43;29.18;97945.69;8446081;28;20249;-81
2022/05/25 10:49:38;;;;;;;4.43;0.90;;;;;;;23.62;29.75;97956.28;8446640;28;20294;-81
2022/05/25 10:54:44;;;;;;;1.70;0.73;;;;;;;25.33;29.06;97948.78;8446918;28;20658;-80
2022/05/25 10:58:23;;;;;;;1.20;0.60;;;;;;;25.56;28.65;97954.28;8446361;28;20566;-80
2022/05/25 11:02:38;;;;;;;1.87;0.80;;;;;;;25.68;27.42;97952.16;8432085;28;20241;-80
2022/05/25 11:07:07;;;;;;;2.57;0.73;;;;;;;25.92;26.78;97951.38;8416725;28;20238;-80
2022/05/25 11:11:17;;;;;;;3.23;1.03;;;;;;;25.13;27.69;97948.19;8418312;28;20227;-80
2022/05/25 11:15:25;;;;;;;2.13;0.60;;;;;;;24.56;27.59;97948.75;8418254;28;20237;-80
2022/05/25 11:19:46;;;;;;;1.70;0.90;;;;;;;25.67;26.38;97953.97;8417782;28;20234;-78
2022/05/25 11:24:02;;;;;;;2.67;0.70;;;;;;;26.03;26.30;97945.72;8418218;28;20229;-82
2022/05/25 11:28:26;;;;;;;2.23;0.70;;;;;;;24.70;26.10;97944.72;8417977;28;20239;-81
2022/05/25 11:32:38;;;;;;;1.97;0.70;;;;;;;24.37;26.84;97944.53;8417382;28;20233;-83
2022/05/25 11:36:56;;;;;;;3.33;0.70;;;;;;;25.10;27.38;97945.88;8417800;28;20257;-83
2022/05/25 11:41:14;;;;;;;2.23;0.70;;;;;;;25.47;26.80;97940.19;8417529;28;20231;-85
2022/05/25 11:45:27;;;;;;;3.07;0.70;;;;;;;25.51;25.10;97946.84;8417258;28;20235;-80
2022/05/25 11:49:50;;;;;;;4.67;0.97;;;;;;;25.21;26.97;97944.72;8409719;28;20555;-82
2022/05/25 11:54:02;;;;;;;1.50;0.50;;;;;;;25.87;26.48;97938.56;8417348;28;20551;-79
2022/05/25 11:58:16;;;;;;;1.70;0.80;;;;;;;26.10;25.70;97929.97;8416943;28;20229;-80
2022/05/25 12:02:36;;;;;;;3.70;0.70;;;;;;;26.02;25.52;97930.78;8417051;28;20237;-81
2022/05/25 12:06:51;;;;;;;5.03;0.93;;;;;;;26.14;25.51;97926.81;8383354;28;20244;-80
2022/05/25 12:11:04;;;;;;;3.80;0.90;;;;;;;24.69;25.49;97933.28;8383143;28;20237;-83
2022/05/25 12:15:14;;;;;;;5.13;0.90;;;;;;;25.20;27.66;97925.38;8383889;28;20235;-94
2022/05/25 12:19:19;;;;;;;3.30;0.77;;;;;;;24.71;27.25;97941.06;8384617;28;20251;-96
2022/05/25 12:23:24;;;;;;;4.03;1.00;;;;;;;25.45;27.27;97942.16;8384870;28;20227;-84
2022/05/25 12:27:35;;;;;;;2.30;0.83;;;;;;;25.97;25.70;97933.13;8384595;28;20518;-89
2022/05/25 12:31:44;;;;;;;3.13;0.80;;;;;;;26.02;26.16;97936.09;8384181;28;20331;-88
2022/05/25 12:35:47;;;;;;;2.03;0.70;;;;;;;25.80;25.77;97937.59;8385366;28;20228;-91
2022/05/25 12:40:01;;;;;;;1.60;0.50;;;;;;;26.10;25.87;97935.25;8385568;28;20234;-92
2022/05/25 12:48:33;;;;;;;3.00;0.60;;;;;;;26.13;25.77;97927.81;8384993;28;20232;-84
2022/05/25 12:52:43;;;;;;;4.27;0.90;;;;;;;25.88;25.48;97926.16;8381580;28;20543;-89
2022/05/25 12:56:47;;;;;;;2.97;0.70;;;;;;;26.26;26.39;97945.88;8382531;28;20416;-87
2022/05/25 13:01:03;;;;;;;4.73;0.60;;;;;;;26.04;26.58;97938.59;8382242;28;20239;-84
2022/05/25 13:05:08;;;;;;;0.93;0.70;;;;;;;24.80;26.50;97945.41;8381969;28;20234;-90
2022/05/25 13:09:34;;;;;;;2.57;0.60;;;;;;;25.18;25.63;97945.91;8382091;28;20231;-88
2022/05/25 13:13:41;;;;;;;2.30;0.70;;;;;;;25.08;26.19;97953.16;8381602;28;20242;-89
2022/05/25 13:17:47;;;;;;;2.43;0.90;;;;;;;24.30;28.05;97939.00;8377839;28;20237;-94
2022/05/25 13:22:15;;;;;;;2.93;0.70;;;;;;;24.04;27.44;97943.44;8383088;28;20529;-96
2022/05/25 13:26:18;;;;;;;3.40;0.80;;;;;;;23.94;28.55;97930.31;8384028;28;20235;-93
2022/05/25 13:30:31;;;;;;;2.23;0.80;;;;;;;25.40;26.64;97933.91;8383729;28;20236;-94
2022/05/25 13:34:34;;;;;;;3.90;1.07;;;;;;;24.08;28.18;97937.69;8416630;28;20236;-96
2022/05/25 13:38:43;;;;;;;2.33;0.80;;;;;;;24.94;27.23;97928.09;8418725;28;20422;-96
2022/05/25 13:42:48;;;;;;;1.33;0.80;;;;;;;24.68;26.40;97923.69;8420072;28;20231;-96
2022/05/25 13:46:53;;;;;;;3.93;0.83;;;;;;;25.40;26.59;97933.91;8418220;28;20230;-93
2022/05/25 13:50:57;;;;;;;1.63;0.70;;;;;;;25.66;25.89;97924.97;8416539;28;20229;-96
2022/05/25 13:55:04;;;;;;;1.83;0.70;;;;;;;25.85;27.71;97927.28;8415570;28;20238;-92
2022/05/25 13:59:09;;;;;;;2.60;0.70;;;;;;;24.70;27.12;97929.66;8416077;28;20280;-94
2022/05/25 14:03:24;;;;;;;5.43;1.27;;;;;;;24.28;28.52;97925.09;8416456;28;20239;-95
2022/05/25 14:07:32;;;;;;;4.75;0.95;;;;;;;25.40;26.32;97923.28;8405572;28;20519;-91
2022/05/25 14:11:40;;;;;;;2.90;0.70;;;;;;;25.21;27.19;97934.13;8406345;28;20297;-93
2022/05/25 14:16:03;;;;;;;3.43;0.77;;;;;;;24.61;27.60;97929.78;8415452;28;20243;-93
2022/05/25 14:20:15;;;;;;;2.35;0.75;;;;;;;24.51;27.58;97924.56;8413465;28;20419;-80
2022/05/25 14:24:19;;;;;;;3.00;1.20;;;;;;;24.25;28.93;97930.69;8413303;28;20233;-81
2022/05/25 14:28:30;;;;;;;2.60;0.77;;;;;;;25.26;25.94;97921.25;8412138;28;20557;-81
2022/05/25 14:32:35;;;;;;;9.70;2.57;;;;;;;24.19;27.92;97923.38;8412945;28;20280;-82
2022/05/25 14:36:38;;;;;;;3.13;0.93;;;;;;;23.81;28.53;97928.88;8412916;28;20238;-81
2022/05/25 14:40:47;;;;;;;2.07;0.80;;;;;;;24.31;28.69;97930.09;8415631;28;20541;-81
2022/05/25 14:44:58;;;;;;;12.93;3.80;;;;;;;24.80;28.11;97932.19;8419143;28;20226;-84
2022/05/25 14:49:03;;;;;;;1.97;0.83;;;;;;;23.71;27.12;97927.28;8418865;28;20232;-82
2022/05/25 14:53:10;;;;;;;2.13;0.67;;;;;;;24.29;26.99;97924.09;8418804;28;20427;-87
2022/05/25 14:57:13;;;;;;;4.40;0.80;;;;;;;24.10;27.96;97926.94;8418835;28;20227;-81
2022/05/25 15:01:21;;;;;;;3.60;0.70;;;;;;;24.21;29.10;97932.00;8418726;28;20236;-86
2022/05/25 15:05:29;;;;;;;4.50;0.97;;;;;;;24.76;28.31;97933.50;8418470;28;20255;-87
2022/05/25 15:09:34;;;;;;;3.37;0.80;;;;;;;23.77;26.86;97927.50;8416041;28;20226;-82
2022/05/25 15:18:34;;;;;;;2.60;0.83;;;;;;;23.86;28.83;97923.16;8372801;28;20534;-83
2022/05/25 15:22:40;;;;;;;9.60;0.70;;;;;;;24.36;26.84;97924.31;8407929;28;20491;-85
2022/05/25 15:27:04;;;;;;;2.73;0.70;;;;;;;24.47;27.65;97923.22;8396630;28;20230;-88
2022/05/25 15:31:12;;;;;;;2.87;0.73;;;;;;;23.79;28.90;97925.56;8415084;28;20236;-83
2022/05/25 15:35:17;;;;;;;8.27;0.83;;;;;;;23.33;27.52;97935.34;8418591;28;20235;-83
2022/05/25 15:39:20;;;;;;;4.17;0.80;;;;;;;24.14;26.89;97921.22;8412232;28;20416;-82
2022/05/25 15:43:25;;;;;;;2.30;0.77;;;;;;;23.98;27.11;97929.03;8374990;28;20237;-79
2022/05/25 15:47:28;;;;;;;1.97;0.70;;;;;;;24.15;27.22;97927.31;8410007;28;20388;-79
2022/05/25 15:51:34;;;;;;;3.80;0.93;;;;;;;23.87;28.01;97926.63;8415770;28;20237;-79
2022/05/25 15:55:38;;;;;;;2.00;0.83;;;;;;;23.92;27.69;97935.75;8416842;28;20540;-79
2022/05/25 15:59:42;;;;;;;2.93;0.70;;;;;;;23.98;26.10;97940.41;8416748;28;20239;-79
2022/05/25 16:03:48;;;;;;;3.50;0.60;;;;;;;23.93;25.96;97937.44;8416967;28;20228;-79
2022/05/25 16:12:14;;;;;;;3.03;0.90;;;;;;;24.09;26.68;97943.81;8416483;28;20230;-80
2022/05/25 16:16:18;;;;;;;3.17;0.80;;;;;;;23.73;27.31;97947.31;8416224;28;20227;-80
2022/05/25 16:20:21;;;;;;;2.90;0.80;;;;;;;23.52;27.97;97944.97;8416080;28;20242;-80
2022/05/25 16:24:26;;;;;;;5.93;1.40;;;;;;;23.39;28.08;97939.22;8407805;28;20227;-80
2022/05/25 16:28:29;;;;;;;2.17;0.97;;;;;;;23.61;27.59;97938.78;8415592;28;20235;-80
2022/05/25 16:32:32;;;;;;;3.33;0.90;;;;;;;23.70;28.27;97938.84;8415896;28;20544;-79
2022/05/25 16:36:36;;;;;;;4.27;0.97;;;;;;;23.35;27.55;97948.44;8415606;28;20227;-81
2022/05/25 16:40:45;;;;;;;1.07;0.70;;;;;;;23.26;27.33;97952.78;8386569;28;20223;-79
2022/05/25 16:44:48;;;;;;;3.03;0.80;;;;;;;23.35;27.37;97959.81;8382002;28;20231;-78
2022/05/25 16:48:52;;;;;;;5.03;0.87;;;;;;;23.22;27.87;97962.81;8381681;28;20232;-79
2022/05/25 16:52:55;;;;;;;1.93;0.70;;;;;;;23.19;27.78;97972.88;8381870;28;20231;-79
2022/05/25 16:56:59;;;;;;;2.00;0.80;;;;;;;23.09;27.98;97964.97;8381680;28;20542;-79
2022/05/25 17:01:02;;;;;;;3.77;0.70;;;;;;;23.03;28.03;97974.31;8381816;28;20538;-79
2022/05/25 17:05:06;;;;;;;4.10;1.00;;;;;;;22.93;27.96;97978.78;8381004;28;20240;-79
2022/05/25 17:09:09;;;;;;;3.17;0.80;;;;;;;22.68;28.52;97982.09;8381413;28;20223;-79
2022/05/25 17:13:14;;;;;;;2.53;1.00;;;;;;;22.44;28.53;97997.41;8381318;28;20235;-80
2022/05/25 17:17:17;;;;;;;5.17;1.10;;;;;;;22.34;29.33;97986.06;8381148;28;20277;-79
2022/05/25 17:21:27;;;;;;;2.70;1.00;;;;;;;22.22;29.45;97993.28;8397519;28;20234;-78
2022/05/25 17:25:30;;;;;;;1.50;0.90;;;;;;;22.27;29.46;97992.88;8398694;28;20243;-79
2022/05/25 17:29:35;;;;;;;2.87;0.90;;;;;;;22.11;29.67;97993.41;8406052;28;20529;-78
2022/05/25 17:33:38;;;;;;;4.63;0.90;;;;;;;22.11;29.60;97993.41;8403590;28;20234;-79
2022/05/25 17:42:02;;;;;;;1.90;0.70;;;;;;;22.17;29.11;98003.41;8380609;28;20232;-80
2022/05/25 17:46:06;;;;;;;2.50;0.93;;;;;;;22.10;29.79;98004.09;8380679;28;20562;-80
2022/05/25 17:50:10;;;;;;;4.33;0.80;;;;;;;22.05;29.74;98018.53;8380737;28;20231;-80
2022/05/25 17:54:13;;;;;;;3.23;1.00;;;;;;;21.95;30.21;98014.22;8380547;28;20231;-79
2022/05/25 17:58:16;;;;;;;3.07;1.30;;;;;;;21.99;30.48;98024.38;8380456;28;20227;-79
2022/05/25 18:02:28;;;;;;;2.57;1.73;;;;;;;21.98;30.33;98032.41;8380131;28;20253;-78
2022/05/25 18:06:32;;;;;;;2.23;1.17;;;;;;;21.88;30.48;98029.78;8380070;28;20239;-80
2022/05/25 18:10:38;;;;;;;2.43;1.23;;;;;;;21.88;30.35;98037.69;8380498;28;20392;-79
2022/05/25 18:14:44;;;;;;;2.43;1.13;;;;;;;21.74;30.98;98031.03;8381243;28;20250;-78
2022/05/25 18:18:49;;;;;;;1.23;0.70;;;;;;;21.71;30.42;98033.09;8386858;28;20238;-79
2022/05/25 18:22:52;;;;;;;2.30;0.90;;;;;;;21.66;30.95;98038.75;8387035;28;20517;-79
2022/05/25 18:26:55;;;;;;;6.67;1.03;;;;;;;21.57;31.45;98037.78;8386382;28;20245;-79
2022/05/25 18:30:58;;;;;;;3.23;0.80;;;;;;;21.62;31.57;98043.47;8386285;28;20227;-79
2022/05/25 18:35:02;;;;;;;2.50;0.77;;;;;;;21.54;31.90;98039.88;8386654;28;20231;-79
2022/05/25 18:39:06;;;;;;;1.33;0.70;;;;;;;21.42;32.04;98047.84;8386247;28;20227;-79
2022/05/25 18:43:09;;;;;;;2.10;0.70;;;;;;;21.46;32.70;98043.16;8385843;28;20223;-76
2022/05/25 18:47:12;;;;;;;2.50;0.90;;;;;;;21.39;32.51;98052.53;8386306;28;20219;-76
2022/05/25 18:51:17;;;;;;;4.73;1.10;;;;;;;21.32;32.83;98054.84;8386060;28;20235;-77
2022/05/25 18:55:21;;;;;;;3.70;0.80;;;;;;;21.24;32.98;98063.44;8385496;28;20240;-76
2022/05/25 18:59:24;;;;;;;5.50;1.20;;;;;;;21.20;34.05;98069.09;8410253;28;20552;-77
2022/05/25 19:03:27;;;;;;;3.50;1.10;;;;;;;21.11;33.96;98062.00;8418559;28;20238;-76
2022/05/25 19:07:32;;;;;;;4.77;1.10;;;;;;;21.13;33.97;98076.69;8418616;28;20381;-76
2022/05/25 19:11:34;;;;;;;1.60;0.70;;;;;;;20.94;35.12;98074.78;8418662;28;20232;-75
2022/05/25 19:15:37;;;;;;;4.17;0.70;;;;;;;20.91;33.84;98076.88;8415688;28;20226;-76
2022/05/25 19:19:43;;;;;;;1.93;0.80;;;;;;;20.85;33.87;98083.50;8385062;28;20249;-76
2022/05/25 19:23:49;;;;;;;2.57;0.67;;;;;;;20.74;34.51;98094.91;8385223;28;20249;-76
2022/05/25 19:27:52;;;;;;;3.00;0.90;;;;;;;20.69;34.52;98092.69;8384557;28;20234;-76
2022/05/25 19:31:56;;;;;;;2.40;0.90;;;;;;;20.62;34.67;98106.47;8384866;28;20242;-76
2022/05/25 19:36:02;;;;;;;1.70;0.80;;;;;;;20.60;34.43;98114.50;8384657;28;20235;-76
2022/05/25 19:40:13;;;;;;;3.70;0.83;;;;;;;20.55;35.00;98123.72;8384684;28;20521;-76
2022/05/25 19:44:18;;;;;;;3.63;0.90;;;;;;;20.49;34.97;98128.50;8383935;28;20227;-76
2022/05/25 19:48:21;;;;;;;4.10;1.10;;;;;;;20.38;35.68;98130.34;8384178;28;20526;-76
2022/05/25 19:52:24;;;;;;;4.63;1.20;;;;;;;20.38;36.18;98132.97;8416674;28;20234;-76
2022/05/25 19:56:28;;;;;;;6.13;1.30;;;;;;;20.23;36.72;98143.78;8417047;28;20307;-76